createdAt,value
2022-12-25T00:00:39.212Z,93.8
2022-12-25T00:01:42.400Z,93.9
2022-12-25T00:02:46.167Z,93.7
2022-12-25T00:03:50.817Z,93.8
2022-12-25T00:04:54.949Z,93.8
2022-12-25T00:05:58.086Z,93.8
2022-12-25T00:07:02.325Z,93.7
2022-12-25T00:08:04.954Z,93.7
2022-12-25T00:09:08.186Z,93.5
2022-12-25T00:10:12.055Z,93.5
2022-12-25T00:11:15.509Z,93.3
2022-12-25T00:12:19.538Z,93.2
2022-12-25T00:13:23.413Z,93.2
2022-12-25T00:14:26.174Z,93.2
2022-12-25T00:15:30.064Z,93.2
2022-12-25T00:16:34.376Z,93.2
2022-12-25T00:17:38.276Z,93.2
2022-12-25T00:18:41.218Z,93.2
2022-12-25T00:19:44.583Z,93.2
2022-12-25T00:20:47.691Z,93.2
2022-12-25T00:21:51.051Z,93
2022-12-25T00:22:54.053Z,92.9
2022-12-25T00:23:56.714Z,92.8
2022-12-25T00:25:00.182Z,92.7
2022-12-25T00:26:04.079Z,92.6
2022-12-25T00:27:07.273Z,92.6
2022-12-25T00:28:10.819Z,92.5
2022-12-25T00:29:14.158Z,92.5
2022-12-25T00:30:17.635Z,92.5
2022-12-25T00:31:20.696Z,92.5
2022-12-25T00:32:23.235Z,92.6
2022-12-25T00:33:26.666Z,92.6
2022-12-25T00:34:44.708Z,92.7
2022-12-25T00:35:47.539Z,92.9
2022-12-25T00:36:50.974Z,92.9
2022-12-25T00:37:53.610Z,93.1
2022-12-25T00:38:56.034Z,93.1
2022-12-25T00:39:59.121Z,93
2022-12-25T00:41:02.220Z,92.9
2022-12-25T00:42:06.058Z,92.9
2022-12-25T00:43:08.852Z,92.9
2022-12-25T00:44:12.300Z,92.9
2022-12-25T00:45:16.901Z,93
2022-12-25T00:46:21.057Z,92.8
2022-12-25T00:47:23.733Z,92.6
2022-12-25T00:48:26.643Z,92.6
2022-12-25T00:49:29.391Z,92.5
2022-12-25T00:50:33.392Z,92.4
2022-12-25T00:51:36.408Z,92.4
2022-12-25T00:52:39.454Z,92.2
2022-12-25T00:53:42.834Z,92
2022-12-25T00:54:45.576Z,91.7
2022-12-25T00:55:48.943Z,91.6
2022-12-25T00:56:51.937Z,91.4
2022-12-25T00:57:55.786Z,91.3
2022-12-25T00:58:58.850Z,91.3
2022-12-25T01:00:02.056Z,91.1
2022-12-25T01:01:05.144Z,90.9
2022-12-25T01:02:08.595Z,91.3
2022-12-25T01:03:13.025Z,92
2022-12-25T01:04:16.416Z,92.2
2022-12-25T01:05:19.214Z,92.8
2022-12-25T01:06:22.653Z,93
2022-12-25T01:07:24.953Z,92.9
2022-12-25T01:08:28.708Z,92.8
2022-12-25T01:09:32.176Z,92.8
2022-12-25T01:10:35.474Z,92.8
2022-12-25T01:11:38.307Z,93
2022-12-25T01:12:42.175Z,93
2022-12-25T01:13:46.027Z,92.9
2022-12-25T01:14:49.121Z,92.9
2022-12-25T01:15:52.871Z,92.8
2022-12-25T01:16:56.420Z,92.8
2022-12-25T01:18:13.249Z,92.8
2022-12-25T01:19:16.636Z,92.3
2022-12-25T01:20:19.500Z,92.4
2022-12-25T01:21:22.968Z,92.1
2022-12-25T01:22:26.040Z,91.6
2022-12-25T01:23:28.755Z,91.3
2022-12-25T01:24:31.904Z,91.4
2022-12-25T01:25:35.008Z,91.6
2022-12-25T01:26:38.653Z,92
2022-12-25T01:27:41.369Z,92.4
2022-12-25T01:28:44.289Z,92.5
2022-12-25T01:29:48.063Z,92.4
2022-12-25T01:30:51.175Z,92.3
2022-12-25T01:31:55.038Z,92.4
2022-12-25T01:32:58.897Z,92.2
2022-12-25T01:34:01.816Z,91.8
2022-12-25T01:35:05.031Z,91.1
2022-12-25T01:36:08.014Z,90.8
2022-12-25T01:37:10.451Z,90.7
2022-12-25T01:38:13.465Z,90.6
2022-12-25T01:39:16.834Z,90.5
2022-12-25T01:40:20.287Z,90.4
2022-12-25T01:41:23.039Z,90.3
2022-12-25T01:42:26.308Z,90.8
2022-12-25T01:43:29.109Z,91
2022-12-25T01:44:32.249Z,90.8
2022-12-25T01:45:36.589Z,90.9
2022-12-25T01:46:39.629Z,91.4
2022-12-25T01:47:43.074Z,91.6
2022-12-25T01:48:46.068Z,91.7
2022-12-25T01:49:49.400Z,91.5
2022-12-25T01:50:52.814Z,91.2
2022-12-25T01:51:55.904Z,91.5
2022-12-25T01:52:58.690Z,91.6
2022-12-25T01:54:01.449Z,91.6
2022-12-25T01:55:04.671Z,91.8
2022-12-25T01:56:06.918Z,92.5
2022-12-25T01:57:10.145Z,92.4
2022-12-25T01:58:13.446Z,92.2
2022-12-25T01:59:16.564Z,92.7
2022-12-25T02:00:19.877Z,93.1
2022-12-25T02:01:24.432Z,93.3
2022-12-25T02:02:29.010Z,92.9
2022-12-25T02:03:33.436Z,92.7
2022-12-25T02:04:36.601Z,92.8
2022-12-25T02:05:39.933Z,92.8
2022-12-25T02:06:42.445Z,92.3
2022-12-25T02:07:45.817Z,91.8
2022-12-25T02:08:48.623Z,91.5
2022-12-25T02:09:51.888Z,91.4
2022-12-25T02:10:55.287Z,92
2022-12-25T02:11:58.102Z,92.3
2022-12-25T02:13:02.197Z,92
2022-12-25T02:14:05.572Z,91.6
2022-12-25T02:15:08.896Z,91.7
2022-12-25T02:16:12.406Z,91.9
2022-12-25T02:17:16.404Z,92.5
2022-12-25T02:18:19.908Z,92.8
2022-12-25T02:19:23.401Z,93.2
2022-12-25T02:20:26.726Z,93.4
2022-12-25T02:21:30.158Z,93.4
2022-12-25T02:22:33.544Z,93.3
2022-12-25T02:23:36.567Z,93.3
2022-12-25T02:24:39.411Z,93.1
2022-12-25T02:25:42.517Z,93.1
2022-12-25T02:26:45.518Z,93.2
2022-12-25T02:27:48.560Z,93.8
2022-12-25T02:28:51.355Z,93.8
2022-12-25T02:29:54.535Z,93.8
2022-12-25T02:30:57.957Z,93.7
2022-12-25T02:32:02.186Z,93.7
2022-12-25T02:33:05.900Z,93.7
2022-12-25T02:34:10.300Z,93.6
2022-12-25T02:35:14.018Z,93.7
2022-12-25T02:36:16.571Z,93.7
2022-12-25T02:37:19.918Z,93.9
2022-12-25T02:38:23.293Z,94.1
2022-12-25T02:39:25.887Z,94.1
2022-12-25T02:40:29.145Z,94.1
2022-12-25T02:41:31.304Z,94.3
2022-12-25T02:42:33.814Z,94.2
2022-12-25T02:43:36.661Z,94.4
2022-12-25T02:44:39.219Z,94.5
2022-12-25T02:45:41.977Z,94.7
2022-12-25T02:46:44.741Z,94.7
2022-12-25T02:47:47.574Z,94.8
2022-12-25T02:48:51.436Z,94.9
2022-12-25T02:49:54.237Z,94.9
2022-12-25T02:50:56.807Z,94.8
2022-12-25T02:51:59.545Z,94.6
2022-12-25T02:53:02.988Z,94.3
2022-12-25T02:54:06.088Z,94.4
2022-12-25T02:55:09.546Z,94.4
2022-12-25T02:56:13.207Z,94.5
2022-12-25T02:57:15.657Z,94.8
2022-12-25T02:58:19.383Z,94.8
2022-12-25T02:59:21.837Z,94.9
2022-12-25T03:00:25.213Z,95.1
2022-12-25T03:01:28.508Z,95.3
2022-12-25T03:02:32.251Z,95.2
2022-12-25T03:03:36.157Z,95.1
2022-12-25T03:04:40.203Z,95.2
2022-12-25T03:05:43.651Z,95.3
2022-12-25T03:06:46.885Z,95.3
2022-12-25T03:07:49.891Z,95.1
2022-12-25T03:08:52.984Z,95
2022-12-25T03:09:56.650Z,94.8
2022-12-25T03:10:59.847Z,94.9
2022-12-25T03:12:03.513Z,94.9
2022-12-25T03:13:06.641Z,95.1
2022-12-25T03:14:09.988Z,95.2
2022-12-25T03:15:13.371Z,95.3
2022-12-25T03:16:16.693Z,95.5
2022-12-25T03:17:19.974Z,95.5
2022-12-25T03:18:23.180Z,95.6
2022-12-25T03:19:26.288Z,95.6
2022-12-25T03:20:29.661Z,95.7
2022-12-25T03:21:33.048Z,95.9
2022-12-25T03:22:36.524Z,95.8
2022-12-25T03:23:39.643Z,95.8
2022-12-25T03:24:43.432Z,95.8
2022-12-25T03:25:46.142Z,95.8
2022-12-25T03:26:48.879Z,95.6
2022-12-25T03:27:51.949Z,95.6
2022-12-25T03:28:55.626Z,95.6
2022-12-25T03:29:58.346Z,95.5
2022-12-25T03:31:01.668Z,95.4
2022-12-25T03:32:05.049Z,95.4
2022-12-25T03:33:46.491Z,95.4
2022-12-25T03:34:49.333Z,95.4
2022-12-25T03:35:52.827Z,95.3
2022-12-25T03:36:55.887Z,95.2
2022-12-25T03:37:59.402Z,95.2
2022-12-25T03:39:02.330Z,95.2
2022-12-25T03:40:05.199Z,95.2
2022-12-25T03:41:08.002Z,95.3
2022-12-25T03:42:11.037Z,95.2
2022-12-25T03:43:13.791Z,95.1
2022-12-25T03:44:17.066Z,95.2
2022-12-25T03:45:20.231Z,95.2
2022-12-25T03:46:23.413Z,95.2
2022-12-25T03:47:27.256Z,95.1
2022-12-25T03:48:30.262Z,95.2
2022-12-25T03:49:33.877Z,95.3
2022-12-25T03:50:37.268Z,95.3
2022-12-25T03:51:40.493Z,95.5
2022-12-25T03:52:43.934Z,95.6
2022-12-25T03:53:47.116Z,95.7
2022-12-25T03:54:50.099Z,95.7
2022-12-25T03:55:53.595Z,95.7
2022-12-25T03:56:57.065Z,95.6
2022-12-25T03:58:00.169Z,95.5
2022-12-25T03:59:03.245Z,95.4
2022-12-25T04:00:06.261Z,95.4
2022-12-25T04:01:09.329Z,95.4
2022-12-25T04:02:12.760Z,95.4
2022-12-25T04:03:16.854Z,95.4
2022-12-25T04:04:19.727Z,95.5
2022-12-25T04:05:22.567Z,95.4
2022-12-25T04:06:25.411Z,95.4
2022-12-25T04:07:28.973Z,95.3
2022-12-25T04:08:32.190Z,95.4
2022-12-25T04:09:35.665Z,95.3
2022-12-25T04:10:38.501Z,95.3
2022-12-25T04:11:41.908Z,95.3
2022-12-25T04:12:45.263Z,95.3
2022-12-25T04:13:48.308Z,95.4
2022-12-25T04:14:51.957Z,95.3
2022-12-25T04:15:54.469Z,95.4
2022-12-25T04:16:57.990Z,95.4
2022-12-25T04:18:01.081Z,95.5
2022-12-25T04:19:04.828Z,95.5
2022-12-25T04:20:08.113Z,95.4
2022-12-25T04:21:11.301Z,95.4
2022-12-25T04:22:14.686Z,95.3
2022-12-25T04:23:18.335Z,95.3
2022-12-25T04:24:22.011Z,95.2
2022-12-25T04:25:25.137Z,95.1
2022-12-25T04:26:27.581Z,94.8
2022-12-25T04:27:30.887Z,94.9
2022-12-25T04:28:33.607Z,94.8
2022-12-25T04:29:37.355Z,94.8
2022-12-25T04:30:39.983Z,94.8
2022-12-25T04:31:43.738Z,95
2022-12-25T04:32:47.183Z,95
2022-12-25T04:33:50.049Z,95
2022-12-25T04:34:53.108Z,95
2022-12-25T04:35:56.207Z,95
2022-12-25T04:36:59.612Z,94.8
2022-12-25T04:38:03.152Z,94.8
2022-12-25T04:39:06.644Z,94.8
2022-12-25T04:40:10.001Z,94.8
2022-12-25T04:41:13.530Z,94.9
2022-12-25T04:42:16.524Z,95
2022-12-25T04:43:19.884Z,95
2022-12-25T04:44:23.289Z,95
2022-12-25T04:45:25.826Z,94.9
2022-12-25T04:46:28.798Z,94.8
2022-12-25T04:47:31.506Z,94.6
2022-12-25T04:48:34.561Z,94.5
2022-12-25T04:49:37.659Z,94.4
2022-12-25T04:50:41.024Z,94.1
2022-12-25T04:51:43.751Z,94.1
2022-12-25T04:52:47.131Z,94.1
2022-12-25T04:53:50.220Z,94
2022-12-25T04:54:54.005Z,94
2022-12-25T04:55:56.811Z,93.9
2022-12-25T04:57:00.201Z,93.9
2022-12-25T04:58:02.985Z,93.9
2022-12-25T04:59:06.424Z,93.9
2022-12-25T05:00:09.548Z,93.9
2022-12-25T05:01:13.168Z,93.9
2022-12-25T05:02:17.278Z,93.9
2022-12-25T05:03:20.666Z,93.9
2022-12-25T05:04:24.178Z,93.9
2022-12-25T05:05:27.157Z,94
2022-12-25T05:06:30.890Z,94
2022-12-25T05:07:33.436Z,94.1
2022-12-25T05:08:37.179Z,94.2
2022-12-25T05:09:40.609Z,94.1
2022-12-25T05:10:43.814Z,93.8
2022-12-25T05:11:47.229Z,93.9
2022-12-25T05:12:50.686Z,94.1
2022-12-25T05:13:53.478Z,94.2
2022-12-25T05:14:56.820Z,94.3
2022-12-25T05:16:00.663Z,94.5
2022-12-25T05:17:03.594Z,94.6
2022-12-25T05:18:06.455Z,94.8
2022-12-25T05:19:09.880Z,94.8
2022-12-25T05:20:13.521Z,95
2022-12-25T05:21:16.861Z,95
2022-12-25T05:22:20.307Z,95.2
2022-12-25T05:23:23.113Z,95.4
2022-12-25T05:24:26.469Z,95.5
2022-12-25T05:25:29.488Z,95.6
2022-12-25T05:26:33.330Z,95.6
2022-12-25T05:27:36.428Z,95.7
2022-12-25T05:28:40.607Z,95.7
2022-12-25T05:29:43.603Z,95.7
2022-12-25T05:30:46.468Z,95.7
2022-12-25T05:31:50.160Z,95.7
2022-12-25T05:32:53.384Z,95.6
2022-12-25T05:33:57.549Z,95.6
2022-12-25T05:35:00.946Z,95.6
2022-12-25T05:36:03.123Z,95.7
2022-12-25T05:37:06.499Z,96
2022-12-25T05:38:08.999Z,96.2
2022-12-25T05:39:11.830Z,96.2
2022-12-25T05:40:14.263Z,96.3
2022-12-25T05:41:17.627Z,96.4
2022-12-25T05:42:21.682Z,96.5
2022-12-25T05:43:24.501Z,96.7
2022-12-25T05:44:27.981Z,96.7
2022-12-25T05:45:31.055Z,96.8
2022-12-25T05:46:34.467Z,97
2022-12-25T05:47:38.131Z,97.1
2022-12-25T05:48:41.545Z,97.1
2022-12-25T05:49:44.751Z,97.4
2022-12-25T05:50:47.894Z,97.4
2022-12-25T05:51:51.032Z,97.4
2022-12-25T05:52:54.362Z,97.3
2022-12-25T05:53:57.788Z,97.4
2022-12-25T05:55:01.173Z,97.4
2022-12-25T05:56:04.177Z,97.4
2022-12-25T05:57:07.288Z,97.5
2022-12-25T05:58:10.587Z,97.4
2022-12-25T05:59:13.708Z,97.4
2022-12-25T06:00:16.860Z,97.3
2022-12-25T06:01:20.612Z,97.4
2022-12-25T06:02:24.400Z,97.4
2022-12-25T06:03:28.911Z,97.3
2022-12-25T06:04:33.369Z,97.3
2022-12-25T06:05:36.812Z,97.2
2022-12-25T06:06:39.523Z,97.2
2022-12-25T06:07:42.606Z,97.2
2022-12-25T06:08:45.463Z,97.3
2022-12-25T06:09:48.248Z,97.3
2022-12-25T06:10:51.536Z,97.3
2022-12-25T06:11:54.607Z,97.3
2022-12-25T06:12:57.060Z,97.5
2022-12-25T06:14:00.825Z,97.5
2022-12-25T06:15:03.568Z,97.6
2022-12-25T06:16:07.502Z,97.6
2022-12-25T06:17:10.810Z,97.5
2022-12-25T06:18:14.161Z,97.7
2022-12-25T06:19:17.866Z,97.7
2022-12-25T06:20:20.404Z,97.8
2022-12-25T06:21:23.419Z,97.8
2022-12-25T06:22:26.585Z,97.7
2022-12-25T06:23:30.291Z,97.7
2022-12-25T06:24:32.927Z,97.6
2022-12-25T06:25:35.376Z,97.6
2022-12-25T06:26:38.722Z,97.5
2022-12-25T06:27:41.731Z,97.5
2022-12-25T06:28:45.439Z,97.4
2022-12-25T06:29:49.794Z,97.3
2022-12-25T06:30:52.983Z,97.4
2022-12-25T06:31:57.617Z,97.2
2022-12-25T06:33:00.803Z,97.2
2022-12-25T06:34:04.260Z,97.1
2022-12-25T06:35:07.693Z,96.9
2022-12-25T06:36:11.630Z,97
2022-12-25T06:37:14.975Z,97
2022-12-25T06:38:17.681Z,97
2022-12-25T06:39:20.777Z,97
2022-12-25T06:40:24.495Z,97
2022-12-25T06:41:27.740Z,97.1
2022-12-25T06:42:31.477Z,97.1
2022-12-25T06:43:34.629Z,97.1
2022-12-25T06:44:37.621Z,97.1
2022-12-25T06:45:41.638Z,97.2
2022-12-25T06:46:45.086Z,97.1
2022-12-25T06:47:48.233Z,97.2
2022-12-25T06:48:51.279Z,97.2
2022-12-25T06:49:54.372Z,97.2
2022-12-25T06:50:57.524Z,97.1
2022-12-25T06:52:02.028Z,97.1
2022-12-25T06:53:05.817Z,97.1
2022-12-25T06:54:08.893Z,97.2
2022-12-25T06:55:11.050Z,97.3
2022-12-25T06:56:13.796Z,97.3
2022-12-25T06:57:16.517Z,97.2
2022-12-25T06:58:19.309Z,97.2
2022-12-25T06:59:22.963Z,97.3
2022-12-25T07:00:26.340Z,97.5
2022-12-25T07:01:30.552Z,97.6
2022-12-25T07:02:35.262Z,97.8
2022-12-25T07:03:38.740Z,97.9
2022-12-25T07:04:41.816Z,97.9
2022-12-25T07:05:45.552Z,97.9
2022-12-25T07:06:48.647Z,97.9
2022-12-25T07:07:52.038Z,97.9
2022-12-25T07:08:54.533Z,97.9
2022-12-25T07:09:58.294Z,97.9
2022-12-25T07:11:01.450Z,97.9
2022-12-25T07:12:04.007Z,97.8
2022-12-25T07:13:06.868Z,97.8
2022-12-25T07:14:09.864Z,97.8
2022-12-25T07:15:12.687Z,97.8
2022-12-25T07:16:16.004Z,97.8
2022-12-25T07:17:19.877Z,97.7
2022-12-25T07:18:23.693Z,97.8
2022-12-25T07:19:26.962Z,97.7
2022-12-25T07:20:30.773Z,97.6
2022-12-25T07:21:33.907Z,97.6
2022-12-25T07:22:37.656Z,97.6
2022-12-25T07:23:40.760Z,97.5
2022-12-25T07:24:43.564Z,97.4
2022-12-25T07:25:46.635Z,97.4
2022-12-25T07:26:49.412Z,97.4
2022-12-25T07:27:52.305Z,97.5
2022-12-25T07:28:55.369Z,97.6
2022-12-25T07:29:57.850Z,97.7
2022-12-25T07:31:00.640Z,97.7
2022-12-25T07:32:04.137Z,97.7
2022-12-25T07:33:07.978Z,97.8
2022-12-25T07:34:10.853Z,97.8
2022-12-25T07:35:14.404Z,97.7
2022-12-25T07:36:17.187Z,97.6
2022-12-25T07:37:20.522Z,97.5
2022-12-25T07:38:23.821Z,97.5
2022-12-25T07:39:27.545Z,97.6
2022-12-25T07:40:30.635Z,97.8
2022-12-25T07:41:34.001Z,97.9
2022-12-25T07:42:36.460Z,98
2022-12-25T07:43:39.545Z,98
2022-12-25T07:44:42.092Z,98
2022-12-25T07:45:45.281Z,98
2022-12-25T07:46:48.762Z,98
2022-12-25T07:48:06.823Z,98
2022-12-25T07:49:19.560Z,98.1
2022-12-25T07:50:23.106Z,98
2022-12-25T07:51:25.837Z,97.9
2022-12-25T07:52:28.551Z,97.9
2022-12-25T07:53:31.650Z,97.8
2022-12-25T07:54:34.821Z,97.8
2022-12-25T07:55:37.905Z,97.9
2022-12-25T07:56:41.282Z,97.8
2022-12-25T07:57:43.430Z,97.8
2022-12-25T07:58:46.493Z,97.9
2022-12-25T07:59:50.234Z,97.9
2022-12-25T08:00:53.677Z,97.9
2022-12-25T08:01:58.869Z,97.9
2022-12-25T08:03:03.165Z,97.9
2022-12-25T08:04:07.402Z,97.9
2022-12-25T08:05:11.390Z,97.9
2022-12-25T08:06:14.760Z,97.8
2022-12-25T08:07:18.121Z,97.9
2022-12-25T08:08:20.450Z,97.9
2022-12-25T08:09:23.896Z,97.9
2022-12-25T08:10:27.488Z,97.8
2022-12-25T08:11:30.004Z,97.8
2022-12-25T08:12:33.131Z,97.8
2022-12-25T08:13:36.277Z,97.8
2022-12-25T08:14:39.377Z,97.6
2022-12-25T08:15:42.565Z,97.6
2022-12-25T08:16:46.189Z,97.5
2022-12-25T08:17:49.680Z,97.4
2022-12-25T08:18:53.057Z,97.3
2022-12-25T08:19:55.869Z,97.2
2022-12-25T08:20:59.423Z,97.1
2022-12-25T08:22:02.921Z,97.2
2022-12-25T08:23:06.010Z,97.2
2022-12-25T08:24:08.764Z,97.1
2022-12-25T08:25:12.128Z,97.1
2022-12-25T08:26:15.296Z,97.1
2022-12-25T08:27:18.351Z,97
2022-12-25T08:28:22.072Z,97
2022-12-25T08:29:25.491Z,97
2022-12-25T08:30:29.367Z,97
2022-12-25T08:31:33.749Z,97
2022-12-25T08:32:40.618Z,96.8
2022-12-25T08:33:44.626Z,96.7
2022-12-25T08:34:47.942Z,96.7
2022-12-25T08:35:51.416Z,96.6
2022-12-25T08:36:55.240Z,96.6
2022-12-25T08:37:59.117Z,96.4
2022-12-25T08:39:04.906Z,96.5
2022-12-25T08:40:08.305Z,96.4
2022-12-25T08:41:11.691Z,96.5
2022-12-25T08:42:15.046Z,96.4
2022-12-25T08:43:18.395Z,96.4
2022-12-25T08:44:21.117Z,96.3
2022-12-25T08:45:26.374Z,96.2
2022-12-25T08:46:38.046Z,96.1
2022-12-25T08:47:41.657Z,96
2022-12-25T08:48:45.110Z,96.1
2022-12-25T08:49:49.090Z,96.2
2022-12-25T08:50:51.894Z,96.2
2022-12-25T08:51:55.679Z,96.2
2022-12-25T08:52:59.930Z,96.3
2022-12-25T08:54:03.677Z,96.4
2022-12-25T08:55:07.021Z,96.5
2022-12-25T08:56:09.733Z,96.5
2022-12-25T08:57:12.770Z,96.4
2022-12-25T08:58:15.897Z,96.3
2022-12-25T08:59:19.105Z,96.3
2022-12-25T09:00:22.476Z,96.3
2022-12-25T09:01:27.041Z,96.2
2022-12-25T09:02:31.745Z,96.1
2022-12-25T09:03:35.320Z,96
2022-12-25T09:04:39.002Z,95.9
2022-12-25T09:05:42.546Z,95.7
2022-12-25T09:06:46.223Z,95.8
2022-12-25T09:07:49.018Z,95.8
2022-12-25T09:08:53.078Z,95.8
2022-12-25T09:09:56.309Z,95.9
2022-12-25T09:10:59.116Z,95.9
2022-12-25T09:12:01.847Z,95.8
2022-12-25T09:13:04.983Z,95.7
2022-12-25T09:14:07.728Z,95.7
2022-12-25T09:15:11.114Z,95.7
2022-12-25T09:16:14.552Z,95.6
2022-12-25T09:17:18.572Z,95.6
2022-12-25T09:18:21.704Z,95.4
2022-12-25T09:19:24.435Z,95.2
2022-12-25T09:20:27.259Z,95.3
2022-12-25T09:21:30.361Z,95.1
2022-12-25T09:22:33.908Z,95
2022-12-25T09:23:37.076Z,95
2022-12-25T09:24:40.892Z,94.8
2022-12-25T09:25:44.245Z,94.8
2022-12-25T09:26:47.771Z,94.7
2022-12-25T09:27:51.233Z,94.7
2022-12-25T09:28:54.376Z,94.7
2022-12-25T09:29:57.474Z,94.7
2022-12-25T09:31:00.712Z,94.6
2022-12-25T09:32:03.382Z,94.5
2022-12-25T09:33:06.714Z,94.5
2022-12-25T09:34:19.381Z,94.6
2022-12-25T09:35:22.718Z,94.6
2022-12-25T09:36:25.923Z,94.5
2022-12-25T09:37:29.271Z,94.4
2022-12-25T09:38:32.314Z,94.4
2022-12-25T09:39:42.261Z,94.4
2022-12-25T09:40:50.711Z,94.4
2022-12-25T09:41:54.165Z,94.5
2022-12-25T09:42:57.271Z,94.5
2022-12-25T09:44:00.950Z,94.3
2022-12-25T09:45:04.356Z,94.3
2022-12-25T09:46:07.750Z,94.3
2022-12-25T09:47:10.989Z,94.4
2022-12-25T09:48:14.061Z,94.5
2022-12-25T09:49:17.137Z,94.4
2022-12-25T09:50:20.631Z,94.3
2022-12-25T09:51:23.467Z,94.3
2022-12-25T09:52:26.198Z,94.2
2022-12-25T09:53:29.036Z,94.3
2022-12-25T09:54:31.567Z,94.2
2022-12-25T09:55:34.893Z,94.3
2022-12-25T09:56:39.138Z,94.3
2022-12-25T09:57:42.050Z,94.3
2022-12-25T09:58:45.102Z,94.3
2022-12-25T09:59:46.993Z,94.3
2022-12-25T10:00:49.518Z,94
2022-12-25T10:01:53.443Z,94.1
2022-12-25T10:02:57.830Z,94.1
2022-12-25T10:04:02.442Z,94.1
2022-12-25T10:05:05.921Z,94.3
2022-12-25T10:06:08.916Z,94.2
2022-12-25T10:07:12.761Z,94.1
2022-12-25T10:08:16.709Z,93.9
2022-12-25T10:09:20.299Z,93.8
2022-12-25T10:10:23.347Z,93.5
2022-12-25T10:11:26.347Z,93.4
2022-12-25T10:12:30.578Z,93.6
2022-12-25T10:13:33.626Z,93.5
2022-12-25T10:14:36.540Z,93.4
2022-12-25T10:15:46.948Z,93.5
2022-12-25T10:16:50.748Z,93.4
2022-12-25T10:17:53.800Z,93.3
2022-12-25T10:18:56.525Z,93.3
2022-12-25T10:19:59.654Z,93.3
2022-12-25T10:21:04.744Z,93.3
2022-12-25T10:22:16.070Z,93.5
2022-12-25T10:23:19.122Z,93.4
2022-12-25T10:24:22.253Z,93.5
2022-12-25T10:25:24.798Z,93.5
2022-12-25T10:26:28.310Z,93.6
2022-12-25T10:27:31.398Z,93.6
2022-12-25T10:28:35.254Z,93.6
2022-12-25T10:29:38.050Z,93.6
2022-12-25T10:30:40.885Z,93.4
2022-12-25T10:31:44.158Z,93.5
2022-12-25T10:32:47.305Z,93.6
2022-12-25T10:33:51.309Z,93.6
2022-12-25T10:34:54.669Z,93.5
2022-12-25T10:35:58.248Z,93.7
2022-12-25T10:37:00.980Z,93.9
2022-12-25T10:38:04.019Z,94.1
2022-12-25T10:39:07.020Z,94
2022-12-25T10:40:10.741Z,94
2022-12-25T10:41:13.849Z,94
2022-12-25T10:42:16.352Z,94
2022-12-25T10:43:19.632Z,94
2022-12-25T10:44:23.444Z,94
2022-12-25T10:45:26.660Z,94
2022-12-25T10:46:30.478Z,94
2022-12-25T10:47:33.732Z,93.9
2022-12-25T10:48:37.103Z,93.9
2022-12-25T10:49:40.557Z,93.9
2022-12-25T10:50:43.440Z,93.9
2022-12-25T10:51:46.602Z,94
2022-12-25T10:52:50.310Z,94
2022-12-25T10:53:52.878Z,93.9
2022-12-25T10:54:55.313Z,93.8
2022-12-25T10:55:57.271Z,93.6
2022-12-25T10:57:01.754Z,93.7
2022-12-25T10:58:05.160Z,93.7
2022-12-25T10:59:08.697Z,93.7
2022-12-25T11:00:12.812Z,93.7
2022-12-25T11:01:16.410Z,93.8
2022-12-25T11:02:20.423Z,93.9
2022-12-25T11:03:24.718Z,93.7
2022-12-25T11:04:27.820Z,93.7
2022-12-25T11:05:31.013Z,93.6
2022-12-25T11:06:33.851Z,93.6
2022-12-25T11:07:37.495Z,93.6
2022-12-25T11:08:40.261Z,93.7
2022-12-25T11:09:43.516Z,93.7
2022-12-25T11:10:46.851Z,93.7
2022-12-25T11:11:49.585Z,93.7
2022-12-25T11:12:52.666Z,93.7
2022-12-25T11:13:56.139Z,93.7
2022-12-25T11:14:58.707Z,93.9
2022-12-25T11:16:02.874Z,93.9
2022-12-25T11:17:06.472Z,93.9
2022-12-25T11:18:09.186Z,93.9
2022-12-25T11:19:11.995Z,93.9
2022-12-25T11:20:15.870Z,93.9
2022-12-25T11:21:19.256Z,93.9
2022-12-25T11:22:22.279Z,94
2022-12-25T11:23:25.406Z,93.9
2022-12-25T11:24:28.946Z,93.8
2022-12-25T11:25:32.019Z,93.8
2022-12-25T11:26:35.290Z,93.8
2022-12-25T11:27:38.099Z,93.7
2022-12-25T11:28:41.124Z,93.7
2022-12-25T11:29:44.042Z,93.7
2022-12-25T11:30:47.805Z,93.9
2022-12-25T11:31:52.044Z,93.9
2022-12-25T11:32:55.520Z,93.8
2022-12-25T11:33:58.670Z,93.8
2022-12-25T11:35:01.478Z,93.7
2022-12-25T11:36:04.522Z,93.7
2022-12-25T11:37:06.975Z,93.7
2022-12-25T11:38:09.429Z,93.8
2022-12-25T11:39:12.530Z,93.8
2022-12-25T11:40:15.783Z,93.9
2022-12-25T11:41:19.267Z,93.7
2022-12-25T11:42:21.743Z,93.8
2022-12-25T11:43:24.863Z,93.9
2022-12-25T11:44:28.236Z,93.9
2022-12-25T11:45:31.312Z,93.9
2022-12-25T11:46:35.304Z,94.1
2022-12-25T11:47:39.249Z,94.1
2022-12-25T11:48:42.324Z,94.1
2022-12-25T11:50:00.842Z,94.1
2022-12-25T11:51:03.845Z,94.1
2022-12-25T11:52:07.490Z,94.1
2022-12-25T11:53:10.773Z,94.2
2022-12-25T11:54:13.493Z,94.3
2022-12-25T11:55:15.681Z,94.2
2022-12-25T11:56:18.781Z,94.1
2022-12-25T11:57:22.117Z,94.2
2022-12-25T11:58:25.121Z,94.2
2022-12-25T11:59:27.559Z,94.2
2022-12-25T12:00:30.895Z,94.2
2022-12-25T12:01:33.643Z,94.3
2022-12-25T12:02:38.387Z,94.4
2022-12-25T12:03:43.660Z,94.6
2022-12-25T12:04:46.649Z,94.6
2022-12-25T12:05:49.718Z,94.6
2022-12-25T12:06:52.514Z,94.6
2022-12-25T12:07:55.954Z,94.6
2022-12-25T12:08:59.377Z,94.6
2022-12-25T12:10:02.641Z,94.6
2022-12-25T12:11:05.759Z,94.6
2022-12-25T12:12:09.465Z,94.6
2022-12-25T12:13:12.513Z,94.6
2022-12-25T12:14:15.301Z,94.7
2022-12-25T12:15:18.366Z,94.7
2022-12-25T12:16:22.108Z,94.7
2022-12-25T12:17:26.275Z,94.7
2022-12-25T12:18:29.977Z,94.7
2022-12-25T12:19:33.734Z,94.7
2022-12-25T12:20:36.588Z,94.7
2022-12-25T12:21:39.307Z,94.7
2022-12-25T12:22:41.890Z,94.7
2022-12-25T12:23:44.121Z,94.9
2022-12-25T12:24:47.479Z,94.9
2022-12-25T12:25:50.558Z,94.9
2022-12-25T12:26:53.264Z,95
2022-12-25T12:28:06.725Z,95
2022-12-25T12:29:09.474Z,95.1
2022-12-25T12:30:12.487Z,95.2
2022-12-25T12:31:16.604Z,95.1
2022-12-25T12:32:19.711Z,95.1
2022-12-25T12:33:22.847Z,95.1
2022-12-25T12:34:26.244Z,95.1
2022-12-25T12:35:30.010Z,95.2
2022-12-25T12:36:40.258Z,95.3
2022-12-25T12:37:43.603Z,95.4
2022-12-25T12:38:46.465Z,95.5
2022-12-25T12:39:49.839Z,95.5
2022-12-25T12:40:53.109Z,95.5
2022-12-25T12:41:56.174Z,95.4
2022-12-25T12:42:59.549Z,95.3
2022-12-25T12:44:03.688Z,95.3
2022-12-25T12:45:06.539Z,95.3
2022-12-25T12:46:10.308Z,95.4
2022-12-25T12:47:13.200Z,95.5
2022-12-25T12:48:16.471Z,95.6
2022-12-25T12:49:20.574Z,95.6
2022-12-25T12:50:24.250Z,95.7
2022-12-25T12:51:27.752Z,95.6
2022-12-25T12:52:30.841Z,95.7
2022-12-25T12:53:33.656Z,95.7
2022-12-25T12:54:36.195Z,95.7
2022-12-25T12:55:38.770Z,95.7
2022-12-25T12:56:42.177Z,95.7
2022-12-25T12:57:44.972Z,95.7
2022-12-25T12:58:48.307Z,95.6
2022-12-25T12:59:51.300Z,95.6
2022-12-25T13:00:54.944Z,95.5
2022-12-25T13:01:58.672Z,95.5
2022-12-25T13:03:02.526Z,95.5
2022-12-25T13:04:06.256Z,95.5
2022-12-25T13:05:09.119Z,95.5
2022-12-25T13:06:12.519Z,95.5
2022-12-25T13:07:16.023Z,95.5
2022-12-25T13:08:18.862Z,95.6
2022-12-25T13:09:22.246Z,95.7
2022-12-25T13:10:25.364Z,95.8
2022-12-25T13:11:28.389Z,95.9
2022-12-25T13:12:31.106Z,96
2022-12-25T13:13:33.343Z,96
2022-12-25T13:14:36.774Z,96.1
2022-12-25T13:15:39.928Z,96.1
2022-12-25T13:16:44.008Z,96.1
2022-12-25T13:17:47.087Z,96.1
2022-12-25T13:18:50.598Z,96.1
2022-12-25T13:19:53.610Z,96.2
2022-12-25T13:20:56.614Z,96.3
2022-12-25T13:22:00.301Z,96.5
2022-12-25T13:23:04.069Z,96.5
2022-12-25T13:24:07.373Z,96.5
2022-12-25T13:25:10.751Z,96.4
2022-12-25T13:26:13.290Z,96.4
2022-12-25T13:27:16.627Z,96.3
2022-12-25T13:28:19.399Z,96.3
2022-12-25T13:29:22.538Z,96.3
2022-12-25T13:30:25.266Z,96.2
2022-12-25T13:31:28.676Z,96.2
2022-12-25T13:32:32.213Z,96.2
2022-12-25T13:33:35.610Z,96.2
2022-12-25T13:34:39.177Z,96.1
2022-12-25T13:35:42.565Z,96.2
2022-12-25T13:36:45.295Z,96.2
2022-12-25T13:37:48.953Z,96.1
2022-12-25T13:38:52.796Z,96
2022-12-25T13:39:55.895Z,96.1
2022-12-25T13:40:59.339Z,96.2
2022-12-25T13:42:02.732Z,96.3
2022-12-25T13:43:06.397Z,96.3
2022-12-25T13:44:09.468Z,96.2
2022-12-25T13:45:12.904Z,96.3
2022-12-25T13:46:16.704Z,96.3
2022-12-25T13:47:20.544Z,96.3
2022-12-25T13:48:24.269Z,96.2
2022-12-25T13:49:27.529Z,96.2
2022-12-25T13:50:30.546Z,96.3
2022-12-25T13:51:33.731Z,96.3
2022-12-25T13:52:37.132Z,96.4
2022-12-25T13:53:40.571Z,96.4
2022-12-25T13:54:44.090Z,96.4
2022-12-25T13:55:46.608Z,96.4
2022-12-25T13:56:49.978Z,96.5
2022-12-25T13:57:53.444Z,96.5
2022-12-25T13:58:57.145Z,96.4
2022-12-25T14:00:00.123Z,96.4
2022-12-25T14:01:03.652Z,96.4
2022-12-25T14:02:08.243Z,96.4
2022-12-25T14:03:12.255Z,96.4
2022-12-25T14:04:14.897Z,96.4
2022-12-25T14:05:18.105Z,96.3
2022-12-25T14:06:21.913Z,96.3
2022-12-25T14:07:24.709Z,96.2
2022-12-25T14:08:27.531Z,96.2
2022-12-25T14:09:31.244Z,96.2